KFRG/FRG METAR and TAF weather

Enter ICAO airport designator
Station Type Date Time Source
KFRG METAR 2018/12/19 08:53 UTC NOAA

KFRG 190853Z AUTO 31003KT 10SM CLR M05/M10 A3015 RMK AO2 SLP210 T10501100 53007


Station Type Date Time Source
KFRG Decoded METAR 2018/12/19 08:53 UTC NOAA

FARMINGDALE REPUBLIC AIRPORT , NY, United States (KFRG) 40-44N 073-25W 21M
Dec 19, 2018 - 03:53 AM EST / 2018.12.19 0853 UTC
Wind: from the NW (310 degrees) at 3 MPH (3 KT):0
Visibility: 10 mile(s):0
Sky conditions: clear
Temperature: 23.0 F (-5.0 C)
Dew Point: 14.0 F (-10.0 C)
Relative Humidity: 67%
Pressure (altimeter): 30.15 in. Hg (1020 hPa)
Pressure tendency: 0.02 inches (0.7 hPa) higher than three hours ago
ob: KFRG 190853Z AUTO 31003KT 10SM CLR M05/M10 A3015 RMK AO2 SLP210 T10501100 53007
cycle: 9

Station Type Date Time Source
KFRG TAF UTC NOAA

Error!


Example: see airport list